createdAt,value
2023-04-16T00:04:31.587Z,13.57
2023-04-16T00:09:34.076Z,13.50
2023-04-16T00:14:36.578Z,14.23
2023-04-16T00:19:39.258Z,14.10
2023-04-16T00:24:42.256Z,13.50
2023-04-16T00:29:44.680Z,12.20
2023-04-16T00:34:47.169Z,13.50
2023-04-16T00:39:50.542Z,14.97
2023-04-16T00:44:53.027Z,14.40
2023-04-16T00:49:55.565Z,15.73
2023-04-16T00:54:59.559Z,20.40
2023-04-16T01:00:02.898Z,22.37
2023-04-16T01:05:06.139Z,25.37
2023-04-16T01:10:09.097Z,16.07
2023-04-16T01:15:11.961Z,18.40
2023-04-16T01:20:14.668Z,21.17
2023-04-16T01:25:17.248Z,18.33
2023-04-16T01:30:20.382Z,16.70
2023-04-16T01:35:43.950Z,16.73
2023-04-16T01:40:46.504Z,16.40
2023-04-16T01:45:48.946Z,16.37
2023-04-16T01:50:51.494Z,19.93
2023-04-16T01:55:53.956Z,19.10
2023-04-16T02:00:56.854Z,17.50
2023-04-16T02:05:59.459Z,17.73
2023-04-16T02:11:04.482Z,15.53
2023-04-16T02:16:07.279Z,15.10
2023-04-16T02:21:24.269Z,14.47
2023-04-16T02:26:26.835Z,16.50
2023-04-16T02:31:33.379Z,15.37
2023-04-16T02:36:36.011Z,15.13
2023-04-16T02:41:38.697Z,14.13
2023-04-16T02:46:41.758Z,15.83
2023-04-16T02:51:44.225Z,14.60
2023-04-16T02:56:46.901Z,15.70
2023-04-16T03:01:49.593Z,13.43
2023-04-16T03:06:52.186Z,14.80
2023-04-16T03:11:54.681Z,14.90
2023-04-16T03:16:57.824Z,16.03
2023-04-16T03:22:00.504Z,14.63
2023-04-16T03:27:03.175Z,15.37
2023-04-16T03:32:05.886Z,18.27
2023-04-16T03:37:12.077Z,17.80
2023-04-16T03:42:14.800Z,19.23
2023-04-16T03:47:17.472Z,18.43
2023-04-16T03:52:21.688Z,20.97
2023-04-16T03:57:24.261Z,18.73
2023-04-16T04:02:29.299Z,18.90
2023-04-16T04:07:31.902Z,18.33
2023-04-16T04:12:34.546Z,21.50
2023-04-16T04:17:37.226Z,19.13
2023-04-16T04:22:39.863Z,19.47
2023-04-16T04:27:42.402Z,16.97
2023-04-16T04:32:44.913Z,19.27
2023-04-16T04:37:48.086Z,16.83
2023-04-16T04:42:54.412Z,13.47
2023-04-16T04:47:59.007Z,15.20
2023-04-16T04:53:01.586Z,17.33
2023-04-16T04:58:05.404Z,16.07
2023-04-16T05:03:11.478Z,14.60
2023-04-16T05:08:14.141Z,9.67
2023-04-16T05:13:16.678Z,12.47
2023-04-16T05:18:19.054Z,11.40
2023-04-16T05:23:21.535Z,12.17
2023-04-16T05:28:24.077Z,16.23
2023-04-16T05:33:26.583Z,15.57
2023-04-16T05:38:29.065Z,14.17
2023-04-16T05:43:31.785Z,12.57
2023-04-16T05:48:34.279Z,15.17
2023-04-16T05:53:36.763Z,7.87
2023-04-16T05:58:39.154Z,15.53
2023-04-16T06:03:41.681Z,16.57
2023-04-16T06:08:44.260Z,17.60
2023-04-16T06:13:46.852Z,16.60
2023-04-16T06:18:49.593Z,15.93
2023-04-16T06:23:52.118Z,18.80
2023-04-16T06:28:54.573Z,10.70
2023-04-16T06:33:57.296Z,12.13
2023-04-16T06:38:59.809Z,14.80
2023-04-16T06:44:02.571Z,18.87
2023-04-16T06:49:05.718Z,16.70
2023-04-16T06:54:08.146Z,12.97
2023-04-16T06:59:11.215Z,17.60
2023-04-16T07:04:13.921Z,16.57
2023-04-16T07:09:17.892Z,9.37
2023-04-16T07:14:20.555Z,13.87
2023-04-16T07:19:23.131Z,14.90
2023-04-16T07:24:25.875Z,15.87
2023-04-16T07:29:28.376Z,14.13
2023-04-16T07:34:31.155Z,16.27
2023-04-16T07:39:33.553Z,17.07
2023-04-16T07:44:36.005Z,16.33
2023-04-16T07:49:39.042Z,15.63
2023-04-16T07:54:41.518Z,15.43
2023-04-16T07:59:44.123Z,16.60
2023-04-16T08:04:46.659Z,18.33
2023-04-16T08:09:53.268Z,18.83
2023-04-16T08:14:55.750Z,18.33
2023-04-16T08:19:58.298Z,18.87
2023-04-16T08:25:00.678Z,15.30
2023-04-16T08:30:03.611Z,20.07
2023-04-16T08:35:06.410Z,14.63
2023-04-16T08:40:09.484Z,14.87
2023-04-16T08:45:17.621Z,11.67
2023-04-16T08:50:27.139Z,12.57
2023-04-16T08:55:47.570Z,12.63
2023-04-16T09:00:50.495Z,7.10
2023-04-16T09:05:55.535Z,6.60
2023-04-16T09:10:58.425Z,10.43
2023-04-16T09:16:01.294Z,10.80
2023-04-16T09:21:04.836Z,8.03
2023-04-16T09:26:07.394Z,7.37
2023-04-16T09:31:18.352Z,9.93
2023-04-16T09:36:23.746Z,11.43
2023-04-16T09:41:28.616Z,8.80
2023-04-16T09:46:33.902Z,11.70
2023-04-16T09:51:42.334Z,7.13
2023-04-16T09:56:46.618Z,10.63
2023-04-16T10:01:50.184Z,10.30
2023-04-16T10:07:06.550Z,9.30
2023-04-16T10:12:09.756Z,4.87
2023-04-16T10:17:12.805Z,8.60
2023-04-16T10:22:16.269Z,8.93
2023-04-16T10:27:20.642Z,9.10
2023-04-16T10:32:28.499Z,8.57
2023-04-16T10:37:32.195Z,8.97
2023-04-16T10:42:34.752Z,8.57
2023-04-16T10:47:40.800Z,8.20
2023-04-16T10:52:43.438Z,8.43
2023-04-16T10:57:49.905Z,8.37
2023-04-16T11:02:54.606Z,9.13
2023-04-16T11:08:14.304Z,8.03
2023-04-16T11:13:17.900Z,8.00
2023-04-16T11:18:20.601Z,6.97
2023-04-16T11:23:23.096Z,8.17
2023-04-16T11:28:35.966Z,8.63
2023-04-16T11:33:39.269Z,8.77
2023-04-16T11:38:42.937Z,8.87
2023-04-16T11:43:46.078Z,9.30
2023-04-16T11:48:53.459Z,9.37
2023-04-16T11:53:56.338Z,10.20
2023-04-16T11:59:13.674Z,6.67
2023-04-16T12:04:19.005Z,6.77
2023-04-16T12:09:26.071Z,8.17
2023-04-16T12:14:29.675Z,8.30
2023-04-16T12:19:32.064Z,7.20
2023-04-16T12:24:36.999Z,7.03
2023-04-16T12:29:39.516Z,7.00
2023-04-16T12:34:51.664Z,6.77
2023-04-16T12:39:54.705Z,5.37
2023-04-16T12:44:57.153Z,5.27
2023-04-16T12:49:59.732Z,4.47
2023-04-16T12:55:03.087Z,3.20
2023-04-16T13:00:08.654Z,3.33
2023-04-16T13:05:11.375Z,5.40
2023-04-16T13:10:14.035Z,4.40
2023-04-16T13:15:16.614Z,3.77
2023-04-16T13:20:19.043Z,3.57
2023-04-16T13:25:21.546Z,2.67
2023-04-16T13:30:24.121Z,2.63
2023-04-16T13:35:27.390Z,2.67
2023-04-16T13:40:29.923Z,2.40
2023-04-16T13:45:33.032Z,4.00
2023-04-16T13:50:35.756Z,4.40
2023-04-16T13:55:39.384Z,4.03
2023-04-16T14:00:45.764Z,5.00
2023-04-16T14:05:48.409Z,5.33
2023-04-16T14:10:50.900Z,4.20
2023-04-16T14:15:56.625Z,3.67
2023-04-16T14:21:02.051Z,4.20
2023-04-16T14:26:04.758Z,5.57
2023-04-16T14:31:07.108Z,7.53
2023-04-16T14:36:10.131Z,7.40
2023-04-16T14:41:13.241Z,5.63
2023-04-16T14:46:19.251Z,6.20
2023-04-16T14:51:22.095Z,6.87
2023-04-16T14:56:24.576Z,7.00
2023-04-16T15:01:27.524Z,10.17
2023-04-16T15:06:30.170Z,6.60
2023-04-16T15:11:32.930Z,6.03
2023-04-16T15:16:35.688Z,10.70
2023-04-16T15:21:38.199Z,12.10
2023-04-16T15:26:40.822Z,10.77
2023-04-16T15:31:43.296Z,14.00
2023-04-16T15:36:45.694Z,15.97
2023-04-16T15:42:00.527Z,23.93
2023-04-16T15:47:03.826Z,5.97
2023-04-16T15:52:06.759Z,15.37
2023-04-16T15:57:09.344Z,9.57
2023-04-16T16:02:12.080Z,10.97
2023-04-16T16:07:19.963Z,15.70
2023-04-16T16:12:22.664Z,17.07
2023-04-16T16:17:26.141Z,19.23
2023-04-16T16:22:28.732Z,9.40
2023-04-16T16:27:31.238Z,15.90
2023-04-16T16:32:33.797Z,20.23
2023-04-16T16:37:36.484Z,22.00
2023-04-16T16:42:38.954Z,22.90
2023-04-16T16:47:41.591Z,17.20
2023-04-16T16:52:44.804Z,22.77
2023-04-16T16:57:47.261Z,10.07
2023-04-16T17:02:52.096Z,22.87
2023-04-16T17:07:55.682Z,13.23
2023-04-16T17:12:58.209Z,21.60
2023-04-16T17:18:00.887Z,23.20
2023-04-16T17:23:03.494Z,23.40
2023-04-16T17:28:06.111Z,8.87
2023-04-16T17:33:08.677Z,22.33
2023-04-16T17:38:11.744Z,23.53
2023-04-16T17:43:14.150Z,23.93
2023-04-16T17:48:16.753Z,19.17
2023-04-16T17:53:19.429Z,23.13
2023-04-16T17:58:22.054Z,22.47
2023-04-16T18:03:24.693Z,24.10
2023-04-16T18:08:27.722Z,22.23
2023-04-16T18:13:30.209Z,23.33
2023-04-16T18:18:32.616Z,22.27
2023-04-16T18:23:35.026Z,23.77
2023-04-16T18:28:37.519Z,21.60
2023-04-16T18:33:55.539Z,24.53
2023-04-16T18:39:01.520Z,22.83
2023-04-16T18:44:04.797Z,29.90
2023-04-16T18:49:07.284Z,20.93
2023-04-16T18:54:09.643Z,23.63
2023-04-16T18:59:12.641Z,26.60
2023-04-16T19:04:15.249Z,25.07
2023-04-16T19:09:17.874Z,23.43
2023-04-16T19:14:20.679Z,21.00
2023-04-16T19:19:23.072Z,22.60
2023-04-16T19:24:25.508Z,22.23
2023-04-16T19:29:28.096Z,21.97
2023-04-16T19:34:30.980Z,23.53
2023-04-16T19:39:33.479Z,23.03
2023-04-16T19:44:36.457Z,25.00
2023-04-16T19:49:38.858Z,22.67
2023-04-16T19:54:42.130Z,16.87
2023-04-16T19:59:44.577Z,21.63
2023-04-16T20:04:48.486Z,18.97
2023-04-16T20:09:50.976Z,21.70
2023-04-16T20:14:53.767Z,21.97
2023-04-16T20:20:01.077Z,20.80
2023-04-16T20:25:03.995Z,20.20
2023-04-16T20:30:06.972Z,17.40
2023-04-16T20:35:11.593Z,20.70
2023-04-16T20:40:15.109Z,19.50
2023-04-16T20:45:18.843Z,18.10
2023-04-16T20:50:21.669Z,19.70
2023-04-16T20:55:24.493Z,15.20
2023-04-16T21:00:27.081Z,17.33
2023-04-16T21:05:30.103Z,18.80
2023-04-16T21:10:32.621Z,19.27
2023-04-16T21:15:35.446Z,19.00
2023-04-16T21:20:38.754Z,16.80
2023-04-16T21:25:41.265Z,16.47
2023-04-16T21:30:43.810Z,14.43
2023-04-16T21:35:52.130Z,19.07
2023-04-16T21:40:55.610Z,20.13
2023-04-16T21:45:59.067Z,19.47
2023-04-16T21:51:06.968Z,12.83
2023-04-16T21:56:09.589Z,15.30
2023-04-16T22:01:12.410Z,19.53
2023-04-16T22:06:17.126Z,16.40
2023-04-16T22:11:19.650Z,17.30
2023-04-16T22:16:22.135Z,12.03
2023-04-16T22:21:25.021Z,15.73
2023-04-16T22:26:27.581Z,15.33
2023-04-16T22:31:30.212Z,14.23
2023-04-16T22:36:32.774Z,14.53
2023-04-16T22:41:36.561Z,13.70
2023-04-16T22:46:39.067Z,13.57
2023-04-16T22:51:41.475Z,14.80
2023-04-16T22:56:43.879Z,11.47
2023-04-16T23:01:46.841Z,11.97
2023-04-16T23:06:49.414Z,13.37
2023-04-16T23:11:51.897Z,12.70
2023-04-16T23:16:54.587Z,13.10
2023-04-16T23:21:57.139Z,12.37
2023-04-16T23:26:59.783Z,12.63
2023-04-16T23:32:02.342Z,13.47
2023-04-16T23:37:04.818Z,12.77
2023-04-16T23:42:07.378Z,14.77
2023-04-16T23:47:09.962Z,11.20
2023-04-16T23:52:12.815Z,11.63
2023-04-16T23:57:15.636Z,13.73
